sensor_id;sensor_type;location;lat;lon;timestamp;pressure;altitude;pressure_sealevel;temperature;humidity
26043;BME280;13818;52.156;5.382;2022-11-03T00:00:07;101103.94;;;11.88;100.00
26043;BME280;13818;52.156;5.382;2022-11-03T00:02:34;101089.00;;;11.84;100.00
26043;BME280;13818;52.156;5.382;2022-11-03T00:05:01;101091.50;;;11.87;100.00
26043;BME280;13818;52.156;5.382;2022-11-03T00:07:47;101079.25;;;11.83;100.00
26043;BME280;13818;52.156;5.382;2022-11-03T00:10:13;101086.50;;;11.81;100.00
26043;BME280;13818;52.156;5.382;2022-11-03T00:12:40;101064.47;;;11.76;100.00
26043;BME280;13818;52.156;5.382;2022-11-03T00:15:08;101073.34;;;11.77;100.00
26043;BME280;13818;52.156;5.382;2022-11-03T00:17:35;101049.41;;;11.75;100.00
26043;BME280;13818;52.156;5.382;2022-11-03T00:20:02;101043.47;;;11.68;100.00
26043;BME280;13818;52.156;5.382;2022-11-03T00:22:28;101045.19;;;11.69;100.00
26043;BME280;13818;52.156;5.382;2022-11-03T00:24:57;101051.09;;;11.76;100.00
26043;BME280;13818;52.156;5.382;2022-11-03T00:27:24;101042.44;;;11.71;100.00
26043;BME280;13818;52.156;5.382;2022-11-03T00:29:50;101039.00;;;11.69;100.00
26043;BME280;13818;52.156;5.382;2022-11-03T00:32:18;101039.78;;;11.71;100.00
26043;BME280;13818;52.156;5.382;2022-11-03T00:34:44;101024.41;;;11.76;100.00
26043;BME280;13818;52.156;5.382;2022-11-03T00:37:11;101017.66;;;11.69;100.00
26043;BME280;13818;52.156;5.382;2022-11-03T00:39:37;101008.03;;;11.65;100.00
26043;BME280;13818;52.156;5.382;2022-11-03T00:42:04;101014.09;;;11.68;100.00
26043;BME280;13818;52.156;5.382;2022-11-03T00:44:30;101005.22;;;11.68;100.00
26043;BME280;13818;52.156;5.382;2022-11-03T00:46:57;100989.94;;;11.71;100.00
26043;BME280;13818;52.156;5.382;2022-11-03T00:49:25;100999.59;;;11.74;100.00
26043;BME280;13818;52.156;5.382;2022-11-03T00:51:51;100998.06;;;11.68;100.00
26043;BME280;13818;52.156;5.382;2022-11-03T00:54:17;101005.16;;;11.69;100.00
26043;BME280;13818;52.156;5.382;2022-11-03T00:56:44;101003.13;;;11.75;100.00
26043;BME280;13818;52.156;5.382;2022-11-03T00:59:10;101019.06;;;11.76;100.00
26043;BME280;13818;52.156;5.382;2022-11-03T01:01:38;101001.09;;;11.80;100.00
26043;BME280;13818;52.156;5.382;2022-11-03T01:04:06;101017.19;;;11.78;100.00
26043;BME280;13818;52.156;5.382;2022-11-03T01:06:54;100993.47;;;11.72;100.00
26043;BME280;13818;52.156;5.382;2022-11-03T01:09:23;100993.38;;;11.73;100.00
26043;BME280;13818;52.156;5.382;2022-11-03T01:11:54;100979.88;;;11.77;100.00
26043;BME280;13818;52.156;5.382;2022-11-03T01:14:22;100982.63;;;11.75;100.00
26043;BME280;13818;52.156;5.382;2022-11-03T01:16:49;100986.31;;;11.72;100.00
26043;BME280;13818;52.156;5.382;2022-11-03T01:19:15;100987.19;;;11.73;100.00
26043;BME280;13818;52.156;5.382;2022-11-03T01:21:42;100985.16;;;11.78;100.00
26043;BME280;13818;52.156;5.382;2022-11-03T01:24:09;100970.22;;;11.74;100.00
26043;BME280;13818;52.156;5.382;2022-11-03T01:26:36;100974.47;;;11.78;100.00
26043;BME280;13818;52.156;5.382;2022-11-03T01:29:02;100956.97;;;11.72;100.00
26043;BME280;13818;52.156;5.382;2022-11-03T01:31:30;100953.94;;;11.79;100.00
26043;BME280;13818;52.156;5.382;2022-11-03T01:33:56;100956.56;;;11.80;100.00
26043;BME280;13818;52.156;5.382;2022-11-03T01:36:23;100956.72;;;11.77;100.00
26043;BME280;13818;52.156;5.382;2022-11-03T01:38:50;100945.81;;;11.82;100.00
26043;BME280;13818;52.156;5.382;2022-11-03T01:41:20;100941.09;;;11.87;100.00
26043;BME280;13818;52.156;5.382;2022-11-03T01:43:49;100943.94;;;11.84;100.00
26043;BME280;13818;52.156;5.382;2022-11-03T01:46:19;100937.41;;;11.89;100.00
26043;BME280;13818;52.156;5.382;2022-11-03T01:48:56;100935.75;;;11.87;100.00
26043;BME280;13818;52.156;5.382;2022-11-03T01:51:26;100935.66;;;11.88;100.00
26043;BME280;13818;52.156;5.382;2022-11-03T01:53:58;100926.81;;;11.88;100.00
26043;BME280;13818;52.156;5.382;2022-11-03T01:56:28;100933.94;;;11.87;100.00
26043;BME280;13818;52.156;5.382;2022-11-03T01:58:56;100925.00;;;11.88;100.00
26043;BME280;13818;52.156;5.382;2022-11-03T02:01:23;100928.53;;;11.89;100.00
26043;BME280;13818;52.156;5.382;2022-11-03T02:03:52;100931.34;;;11.86;100.00
26043;BME280;13818;52.156;5.382;2022-11-03T02:06:22;100918.25;;;11.81;100.00
26043;BME280;13818;52.156;5.382;2022-11-03T02:08:52;100919.91;;;11.84;100.00
26043;BME280;13818;52.156;5.382;2022-11-03T02:11:21;100922.09;;;11.93;100.00
26043;BME280;13818;52.156;5.382;2022-11-03T02:14:12;100914.22;;;11.90;100.00
26043;BME280;13818;52.156;5.382;2022-11-03T02:16:40;100913.53;;;11.86;100.00
26043;BME280;13818;52.156;5.382;2022-11-03T02:19:15;100915.25;;;11.87;100.00
26043;BME280;13818;52.156;5.382;2022-11-03T02:21:51;100918.63;;;11.91;100.00
26043;BME280;13818;52.156;5.382;2022-11-03T02:24:26;100902.91;;;11.85;100.00
26043;BME280;13818;52.156;5.382;2022-11-03T02:26:58;100910.06;;;11.84;100.00
26043;BME280;13818;52.156;5.382;2022-11-03T02:29:24;100909.34;;;11.81;100.00
26043;BME280;13818;52.156;5.382;2022-11-03T02:31:57;100906.59;;;11.82;100.00
26043;BME280;13818;52.156;5.382;2022-11-03T02:34:30;100897.81;;;11.80;100.00
26043;BME280;13818;52.156;5.382;2022-11-03T02:37:04;100890.75;;;11.79;100.00
26043;BME280;13818;52.156;5.382;2022-11-03T02:39:37;100895.22;;;11.79;100.00
26043;BME280;13818;52.156;5.382;2022-11-03T02:42:08;100880.91;;;11.80;100.00
26043;BME280;13818;52.156;5.382;2022-11-03T02:44:37;100875.84;;;11.75;100.00
26043;BME280;13818;52.156;5.382;2022-11-03T02:47:06;100879.19;;;11.79;100.00
26043;BME280;13818;52.156;5.382;2022-11-03T02:49:37;100876.59;;;11.77;100.00
26043;BME280;13818;52.156;5.382;2022-11-03T02:52:05;100864.91;;;11.80;100.00
26043;BME280;13818;52.156;5.382;2022-11-03T02:54:34;100860.34;;;11.82;100.00
26043;BME280;13818;52.156;5.382;2022-11-03T02:57:06;100858.38;;;11.85;100.00
26043;BME280;13818;52.156;5.382;2022-11-03T02:59:42;100854.16;;;11.81;100.00
26043;BME280;13818;52.156;5.382;2022-11-03T03:02:14;100846.47;;;11.75;100.00
26043;BME280;13818;52.156;5.382;2022-11-03T03:04:45;100856.13;;;11.78;100.00
26043;BME280;13818;52.156;5.382;2022-11-03T03:07:16;100847.22;;;11.77;100.00
26043;BME280;13818;52.156;5.382;2022-11-03T03:09:51;100855.94;;;11.81;100.00
26043;BME280;13818;52.156;5.382;2022-11-03T03:12:21;100855.94;;;11.81;100.00
26043;BME280;13818;52.156;5.382;2022-11-03T03:14:50;100850.59;;;11.81;100.00
26043;BME280;13818;52.156;5.382;2022-11-03T03:17:22;100840.00;;;11.79;100.00
26043;BME280;13818;52.156;5.382;2022-11-03T03:19:52;100821.31;;;11.79;100.00
26043;BME280;13818;52.156;5.382;2022-11-03T03:22:24;100818.66;;;11.79;100.00
26043;BME280;13818;52.156;5.382;2022-11-03T03:24:57;100824.78;;;11.81;100.00
26043;BME280;13818;52.156;5.382;2022-11-03T03:27:29;100823.81;;;11.82;100.00
26043;BME280;13818;52.156;5.382;2022-11-03T03:30:01;100815.97;;;11.79;100.00
26043;BME280;13818;52.156;5.382;2022-11-03T03:32:31;100812.09;;;11.85;100.00
26043;BME280;13818;52.156;5.382;2022-11-03T03:34:59;100808.41;;;11.87;100.00
26043;BME280;13818;52.156;5.382;2022-11-03T03:37:28;100811.03;;;11.89;100.00
26043;BME280;13818;52.156;5.382;2022-11-03T03:39:58;100799.31;;;11.92;100.00
26043;BME280;13818;52.156;5.382;2022-11-03T03:42:31;100795.84;;;11.89;100.00
26043;BME280;13818;52.156;5.382;2022-11-03T03:44:58;100786.81;;;11.92;100.00
26043;BME280;13818;52.156;5.382;2022-11-03T03:47:27;100802.63;;;11.97;100.00
26043;BME280;13818;52.156;5.382;2022-11-03T03:49:54;100798.00;;;12.00;100.00
26043;BME280;13818;52.156;5.382;2022-11-03T03:52:21;100781.09;;;12.00;100.00
26043;BME280;13818;52.156;5.382;2022-11-03T03:54:48;100787.38;;;11.99;100.00
26043;BME280;13818;52.156;5.382;2022-11-03T03:57:17;100776.63;;;12.00;100.00
26043;BME280;13818;52.156;5.382;2022-11-03T03:59:46;100791.63;;;12.03;100.00
26043;BME280;13818;52.156;5.382;2022-11-03T04:02:13;100783.53;;;12.04;100.00
26043;BME280;13818;52.156;5.382;2022-11-03T04:04:40;100785.19;;;12.07;100.00
26043;BME280;13818;52.156;5.382;2022-11-03T04:07:07;100776.13;;;12.10;100.00
26043;BME280;13818;52.156;5.382;2022-11-03T04:09:48;100773.38;;;12.11;100.00
26043;BME280;13818;52.156;5.382;2022-11-03T04:12:14;100772.28;;;12.15;100.00
26043;BME280;13818;52.156;5.382;2022-11-03T04:14:59;100773.97;;;12.16;100.00
26043;BME280;13818;52.156;5.382;2022-11-03T04:17:52;100774.59;;;12.21;100.00
26043;BME280;13818;52.156;5.382;2022-11-03T04:20:36;100764.09;;;12.18;100.00
26043;BME280;13818;52.156;5.382;2022-11-03T04:23:20;100768.50;;;12.19;100.00
26043;BME280;13818;52.156;5.382;2022-11-03T04:25:47;100764.28;;;12.15;100.00
26043;BME280;13818;52.156;5.382;2022-11-03T04:28:16;100766.94;;;12.15;100.00
26043;BME280;13818;52.156;5.382;2022-11-03T04:30:44;100768.63;;;12.16;100.00
26043;BME280;13818;52.156;5.382;2022-11-03T04:33:14;100749.09;;;12.16;100.00
26043;BME280;13818;52.156;5.382;2022-11-03T04:35:41;100745.00;;;12.09;100.00
26043;BME280;13818;52.156;5.382;2022-11-03T04:38:20;100755.28;;;12.16;100.00
26043;BME280;13818;52.156;5.382;2022-11-03T04:40:51;100736.91;;;12.10;100.00
26043;BME280;13818;52.156;5.382;2022-11-03T04:43:19;100751.28;;;12.08;100.00
26043;BME280;13818;52.156;5.382;2022-11-03T04:45:48;100741.50;;;12.08;100.00
26043;BME280;13818;52.156;5.382;2022-11-03T04:48:18;100740.56;;;12.09;100.00
26043;BME280;13818;52.156;5.382;2022-11-03T04:50:47;100740.09;;;12.01;100.00
26043;BME280;13818;52.156;5.382;2022-11-03T04:53:16;100730.34;;;12.00;100.00
26043;BME280;13818;52.156;5.382;2022-11-03T04:55:45;100726.91;;;11.98;100.00
26043;BME280;13818;52.156;5.382;2022-11-03T04:58:16;100726.03;;;11.97;100.00
26043;BME280;13818;52.156;5.382;2022-11-03T05:00:43;100724.16;;;11.99;100.00
26043;BME280;13818;52.156;5.382;2022-11-03T05:03:14;100728.56;;;12.00;100.00
26043;BME280;13818;52.156;5.382;2022-11-03T05:05:42;100724.06;;;12.01;100.00
26043;BME280;13818;52.156;5.382;2022-11-03T05:08:08;100719.66;;;12.00;100.00
26043;BME280;13818;52.156;5.382;2022-11-03T05:10:35;100710.88;;;11.98;100.00
26043;BME280;13818;52.156;5.382;2022-11-03T05:13:01;100704.75;;;11.96;100.00
26043;BME280;13818;52.156;5.382;2022-11-03T05:15:30;100702.09;;;11.96;100.00
26043;BME280;13818;52.156;5.382;2022-11-03T05:17:58;100703.00;;;11.95;100.00
26043;BME280;13818;52.156;5.382;2022-11-03T05:20:32;100699.41;;;11.96;100.00
26043;BME280;13818;52.156;5.382;2022-11-03T05:22:59;100688.88;;;11.93;100.00
26043;BME280;13818;52.156;5.382;2022-11-03T05:25:37;100689.72;;;11.93;100.00
26043;BME280;13818;52.156;5.382;2022-11-03T05:28:13;100689.53;;;11.98;100.00
26043;BME280;13818;52.156;5.382;2022-11-03T05:30:41;100685.97;;;11.97;100.00
26043;BME280;13818;52.156;5.382;2022-11-03T05:33:17;100677.16;;;11.95;100.00
26043;BME280;13818;52.156;5.382;2022-11-03T05:35:45;100669.09;;;11.97;100.00
26043;BME280;13818;52.156;5.382;2022-11-03T05:38:14;100669.09;;;11.97;100.00
26043;BME280;13818;52.156;5.382;2022-11-03T05:40:41;100672.53;;;11.99;100.00
26043;BME280;13818;52.156;5.382;2022-11-03T05:43:10;100672.38;;;12.02;100.00
26043;BME280;13818;52.156;5.382;2022-11-03T05:45:38;100672.53;;;11.99;100.00
26043;BME280;13818;52.156;5.382;2022-11-03T05:48:12;100663.56;;;12.00;100.00
26043;BME280;13818;52.156;5.382;2022-11-03T05:50:41;100652.19;;;11.96;100.00
26043;BME280;13818;52.156;5.382;2022-11-03T05:53:21;100664.34;;;12.02;100.00
26043;BME280;13818;52.156;5.382;2022-11-03T05:55:49;100662.38;;;12.06;100.00
26043;BME280;13818;52.156;5.382;2022-11-03T05:58:21;100647.38;;;12.03;100.00
26043;BME280;13818;52.156;5.382;2022-11-03T06:00:49;100651.69;;;12.06;100.00
26043;BME280;13818;52.156;5.382;2022-11-03T06:03:18;100662.53;;;12.02;100.00
26043;BME280;13818;52.156;5.382;2022-11-03T06:05:46;100658.06;;;12.03;100.00
26043;BME280;13818;52.156;5.382;2022-11-03T06:08:18;100661.59;;;12.03;100.00
26043;BME280;13818;52.156;5.382;2022-11-03T06:10:48;100645.47;;;12.05;100.00
26043;BME280;13818;52.156;5.382;2022-11-03T06:13:17;100634.03;;;12.03;100.00
26043;BME280;13818;52.156;5.382;2022-11-03T06:15:45;100634.78;;;12.05;100.00
26043;BME280;13818;52.156;5.382;2022-11-03T06:18:14;100637.31;;;12.08;100.00
26043;BME280;13818;52.156;5.382;2022-11-03T06:20:48;100631.19;;;12.06;100.00
26043;BME280;13818;52.156;5.382;2022-11-03T06:23:17;100637.31;;;12.08;100.00
26043;BME280;13818;52.156;5.382;2022-11-03T06:25:47;100633.69;;;12.09;100.00
26043;BME280;13818;52.156;5.382;2022-11-03T06:28:17;100621.97;;;12.12;100.00
26043;BME280;13818;52.156;5.382;2022-11-03T06:30:44;100622.81;;;12.12;100.00
26043;BME280;13818;52.156;5.382;2022-11-03T06:33:14;100614.81;;;12.12;100.00
26043;BME280;13818;52.156;5.382;2022-11-03T06:35:42;100621.00;;;12.13;100.00
26043;BME280;13818;52.156;5.382;2022-11-03T06:38:14;100615.66;;;12.13;100.00
26043;BME280;13818;52.156;5.382;2022-11-03T06:40:44;100611.88;;;12.17;100.00
26043;BME280;13818;52.156;5.382;2022-11-03T06:43:18;100611.09;;;12.15;100.00
26043;BME280;13818;52.156;5.382;2022-11-03T06:45:50;100606.53;;;12.17;100.00
26043;BME280;13818;52.156;5.382;2022-11-03T06:48:22;100613.53;;;12.19;100.00
26043;BME280;13818;52.156;5.382;2022-11-03T06:50:49;100598.34;;;12.20;100.00
26043;BME280;13818;52.156;5.382;2022-11-03T06:53:19;100609.03;;;12.20;100.00
26043;BME280;13818;52.156;5.382;2022-11-03T06:55:48;100604.63;;;12.19;100.00
26043;BME280;13818;52.156;5.382;2022-11-03T06:58:21;100611.59;;;12.21;100.00
26043;BME280;13818;52.156;5.382;2022-11-03T07:00:50;100608.94;;;12.21;100.00
26043;BME280;13818;52.156;5.382;2022-11-03T07:03:20;100600.66;;;12.26;100.00
26043;BME280;13818;52.156;5.382;2022-11-03T07:05:48;100602.28;;;12.29;100.00
26043;BME280;13818;52.156;5.382;2022-11-03T07:08:20;100600.41;;;12.31;100.00
26043;BME280;13818;52.156;5.382;2022-11-03T07:10:49;100602.88;;;12.34;100.00
26043;BME280;13818;52.156;5.382;2022-11-03T07:13:23;100603.66;;;12.36;100.00
26043;BME280;13818;52.156;5.382;2022-11-03T07:15:50;100608.94;;;12.37;100.00
26043;BME280;13818;52.156;5.382;2022-11-03T07:18:21;100610.56;;;12.40;100.00
26043;BME280;13818;52.156;5.382;2022-11-03T07:20:47;100598.81;;;12.43;100.00
26043;BME280;13818;52.156;5.382;2022-11-03T07:23:17;100600.31;;;12.48;100.00
26043;BME280;13818;52.156;5.382;2022-11-03T07:25:47;100601.25;;;12.47;100.00
26043;BME280;13818;52.156;5.382;2022-11-03T07:28:16;100600.38;;;12.47;100.00
26043;BME280;13818;52.156;5.382;2022-11-03T07:30:43;100598.38;;;12.50;100.00
26043;BME280;13818;52.156;5.382;2022-11-03T07:33:12;100602.63;;;12.55;100.00
26043;BME280;13818;52.156;5.382;2022-11-03T07:35:41;100596.22;;;12.57;100.00
26043;BME280;13818;52.156;5.382;2022-11-03T07:38:12;100581.81;;;12.60;100.00
26043;BME280;13818;52.156;5.382;2022-11-03T07:40:38;100588.22;;;12.57;100.00
26043;BME280;13818;52.156;5.382;2022-11-03T07:43:13;100586.97;;;12.63;100.00
26043;BME280;13818;52.156;5.382;2022-11-03T07:45:43;100586.97;;;12.63;100.00
26043;BME280;13818;52.156;5.382;2022-11-03T07:48:24;100584.88;;;12.68;100.00
26043;BME280;13818;52.156;5.382;2022-11-03T07:50:53;100582.13;;;12.69;100.00
26043;BME280;13818;52.156;5.382;2022-11-03T07:53:24;100582.78;;;12.73;100.00
26043;BME280;13818;52.156;5.382;2022-11-03T07:55:57;100579.00;;;12.77;100.00
26043;BME280;13818;52.156;5.382;2022-11-03T07:58:28;100579.75;;;12.79;100.00
26043;BME280;13818;52.156;5.382;2022-11-03T08:00:59;100570.69;;;12.82;100.00
26043;BME280;13818;52.156;5.382;2022-11-03T08:03:36;100572.16;;;12.88;100.00
26043;BME280;13818;52.156;5.382;2022-11-03T08:06:06;100572.06;;;12.89;100.00
26043;BME280;13818;52.156;5.382;2022-11-03T08:08:32;100561.34;;;12.89;100.00
26043;BME280;13818;52.156;5.382;2022-11-03T08:11:00;100564.81;;;12.91;100.00
26043;BME280;13818;52.156;5.382;2022-11-03T08:13:26;100568.22;;;12.93;100.00
26043;BME280;13818;52.156;5.382;2022-11-03T08:15:52;100570.53;;;12.99;100.00
26043;BME280;13818;52.156;5.382;2022-11-03T08:18:20;100567.00;;;12.99;100.00
26043;BME280;13818;52.156;5.382;2022-11-03T08:20:47;100553.06;;;12.94;100.00
26043;BME280;13818;52.156;5.382;2022-11-03T08:23:13;100559.00;;;12.99;100.00
26043;BME280;13818;52.156;5.382;2022-11-03T08:25:41;100544.56;;;13.01;100.00
26043;BME280;13818;52.156;5.382;2022-11-03T08:28:07;100553.94;;;13.09;100.00
26043;BME280;13818;52.156;5.382;2022-11-03T08:30:34;100542.75;;;13.16;100.00
26043;BME280;13818;52.156;5.382;2022-11-03T08:33:00;100534.63;;;13.18;100.00
26043;BME280;13818;52.156;5.382;2022-11-03T08:35:28;100533.31;;;13.25;100.00
26043;BME280;13818;52.156;5.382;2022-11-03T08:37:55;100525.06;;;13.28;100.00
26043;BME280;13818;52.156;5.382;2022-11-03T08:40:21;100520.78;;;13.26;100.00
26043;BME280;13818;52.156;5.382;2022-11-03T08:42:48;100520.78;;;13.26;100.00
26043;BME280;13818;52.156;5.382;2022-11-03T08:45:15;100501.75;;;13.30;100.00
26043;BME280;13818;52.156;5.382;2022-11-03T08:47:42;100492.78;;;13.31;100.00
26043;BME280;13818;52.156;5.382;2022-11-03T08:50:08;100488.94;;;13.35;100.00
26043;BME280;13818;52.156;5.382;2022-11-03T08:52:36;100466.66;;;13.35;100.00
26043;BME280;13818;52.156;5.382;2022-11-03T08:55:03;100475.31;;;13.40;100.00
26043;BME280;13818;52.156;5.382;2022-11-03T08:57:30;100475.09;;;13.43;100.00
26043;BME280;13818;52.156;5.382;2022-11-03T08:59:56;100479.69;;;13.41;100.00
26043;BME280;13818;52.156;5.382;2022-11-03T09:02:24;100470.41;;;13.47;100.00
26043;BME280;13818;52.156;5.382;2022-11-03T09:04:50;100469.63;;;13.45;100.00
26043;BME280;13818;52.156;5.382;2022-11-03T09:07:17;100468.00;;;13.57;100.00
26043;BME280;13818;52.156;5.382;2022-11-03T09:09:45;100463.03;;;13.78;100.00
26043;BME280;13818;52.156;5.382;2022-11-03T09:12:11;100444.44;;;13.89;100.00
26043;BME280;13818;52.156;5.382;2022-11-03T09:14:38;100440.09;;;14.01;100.00
26043;BME280;13818;52.156;5.382;2022-11-03T09:17:04;100434.44;;;14.06;100.00
26043;BME280;13818;52.156;5.382;2022-11-03T09:19:31;100427.44;;;14.03;100.00
26043;BME280;13818;52.156;5.382;2022-11-03T09:21:58;100420.28;;;14.04;100.00
26043;BME280;13818;52.156;5.382;2022-11-03T09:24:25;100414.91;;;14.04;100.00
26043;BME280;13818;52.156;5.382;2022-11-03T09:26:53;100413.19;;;14.03;100.00
26043;BME280;13818;52.156;5.382;2022-11-03T09:29:19;100401.16;;;13.95;100.00
26043;BME280;13818;52.156;5.382;2022-11-03T09:31:46;100394.44;;;14.03;100.00
26043;BME280;13818;52.156;5.382;2022-11-03T09:34:13;100388.13;;;14.04;100.00
26043;BME280;13818;52.156;5.382;2022-11-03T09:36:39;100381.88;;;14.03;100.00
26043;BME280;13818;52.156;5.382;2022-11-03T09:39:06;100378.47;;;14.01;100.00
26043;BME280;13818;52.156;5.382;2022-11-03T09:41:33;100369.91;;;14.09;100.00
26043;BME280;13818;52.156;5.382;2022-11-03T09:44:01;100348.59;;;14.07;100.00
26043;BME280;13818;52.156;5.382;2022-11-03T09:46:28;100360.91;;;14.10;100.00
26043;BME280;13818;52.156;5.382;2022-11-03T09:48:55;100355.00;;;14.05;100.00
26043;BME280;13818;52.156;5.382;2022-11-03T09:51:24;100357.91;;;14.14;100.00
26043;BME280;13818;52.156;5.382;2022-11-03T09:53:52;100345.91;;;14.20;100.00
26043;BME280;13818;52.156;5.382;2022-11-03T09:56:21;100345.69;;;14.23;100.00
26043;BME280;13818;52.156;5.382;2022-11-03T09:58:48;100336.78;;;14.36;100.00
26043;BME280;13818;52.156;5.382;2022-11-03T10:01:16;100329.06;;;14.44;100.00
26043;BME280;13818;52.156;5.382;2022-11-03T10:03:43;100323.47;;;14.47;100.00
26043;BME280;13818;52.156;5.382;2022-11-03T10:06:09;100321.00;;;14.57;100.00
26043;BME280;13818;52.156;5.382;2022-11-03T10:08:37;100319.81;;;14.61;100.00
26043;BME280;13818;52.156;5.382;2022-11-03T10:11:06;100323.47;;;14.60;100.00
26043;BME280;13818;52.156;5.382;2022-11-03T10:13:37;100309.53;;;14.55;100.00
26043;BME280;13818;52.156;5.382;2022-11-03T10:16:05;100301.47;;;14.55;100.00
26043;BME280;13818;52.156;5.382;2022-11-03T10:18:35;100294.53;;;14.65;100.00
26043;BME280;13818;52.156;5.382;2022-11-03T10:21:04;100293.97;;;14.60;100.00
26043;BME280;13818;52.156;5.382;2022-11-03T10:23:31;100284.53;;;14.54;100.00
26043;BME280;13818;52.156;5.382;2022-11-03T10:26:07;100291.28;;;14.60;100.00
26043;BME280;13818;52.156;5.382;2022-11-03T10:28:34;100280.03;;;14.55;100.00
26043;BME280;13818;52.156;5.382;2022-11-03T10:31:02;100281.78;;;14.43;100.00
26043;BME280;13818;52.156;5.382;2022-11-03T10:33:32;100279.41;;;14.38;100.00
26043;BME280;13818;52.156;5.382;2022-11-03T10:36:02;100277.94;;;14.34;100.00
26043;BME280;13818;52.156;5.382;2022-11-03T10:38:30;100266.66;;;14.42;100.00
26043;BME280;13818;52.156;5.382;2022-11-03T10:41:09;100275.09;;;14.48;100.00
26043;BME280;13818;52.156;5.382;2022-11-03T10:43:36;100266.34;;;14.46;100.00
26043;BME280;13818;52.156;5.382;2022-11-03T10:46:11;100260.97;;;14.46;100.00
26043;BME280;13818;52.156;5.382;2022-11-03T10:48:39;100245.97;;;14.44;100.00
26043;BME280;13818;52.156;5.382;2022-11-03T10:51:10;100230.19;;;14.39;100.00
26043;BME280;13818;52.156;5.382;2022-11-03T10:53:37;100227.91;;;14.46;100.00
26043;BME280;13818;52.156;5.382;2022-11-03T10:56:04;100225.66;;;14.53;100.00
26043;BME280;13818;52.156;5.382;2022-11-03T10:58:31;100230.06;;;14.54;100.00
26043;BME280;13818;52.156;5.382;2022-11-03T11:00:58;100223.84;;;14.53;100.00
26043;BME280;13818;52.156;5.382;2022-11-03T11:03:25;100213.88;;;14.55;100.00
26043;BME280;13818;52.156;5.382;2022-11-03T11:05:51;100212.25;;;14.53;100.00
26043;BME280;13818;52.156;5.382;2022-11-03T11:08:22;100209.88;;;14.61;100.00
26043;BME280;13818;52.156;5.382;2022-11-03T11:10:48;100199.47;;;14.69;100.00
26043;BME280;13818;52.156;5.382;2022-11-03T11:13:26;100194.81;;;14.71;100.00
26043;BME280;13818;52.156;5.382;2022-11-03T11:15:54;100194.81;;;14.71;100.00
26043;BME280;13818;52.156;5.382;2022-11-03T11:21:55;100203.50;;;14.75;100.00
26043;BME280;13818;52.156;5.382;2022-11-03T11:25:01;100200.81;;;14.88;100.00
26043;BME280;13818;52.156;5.382;2022-11-03T11:31:01;100187.59;;;14.85;100.00
26043;BME280;13818;52.156;5.382;2022-11-03T11:33:30;100190.06;;;14.88;100.00
26043;BME280;13818;52.156;5.382;2022-11-03T11:39:09;100178.78;;;14.83;100.00
26043;BME280;13818;52.156;5.382;2022-11-03T11:42:10;100171.53;;;14.96;100.00
26043;BME280;13818;52.156;5.382;2022-11-03T11:44:46;100159.25;;;15.05;100.00
26043;BME280;13818;52.156;5.382;2022-11-03T11:47:25;100146.72;;;15.17;100.00
26043;BME280;13818;52.156;5.382;2022-11-03T11:50:21;100139.28;;;15.20;100.00
26043;BME280;13818;52.156;5.382;2022-11-03T11:52:52;100136.53;;;15.33;100.00
26043;BME280;13818;52.156;5.382;2022-11-03T11:55:28;100131.19;;;15.33;100.00
26043;BME280;13818;52.156;5.382;2022-11-03T11:57:58;100125.28;;;15.28;100.00
26043;BME280;13818;52.156;5.382;2022-11-03T12:00:28;100119.19;;;15.26;100.00
26043;BME280;13818;52.156;5.382;2022-11-03T12:02:56;100119.34;;;15.36;100.00
26043;BME280;13818;52.156;5.382;2022-11-03T12:05:25;100106.50;;;15.39;100.00
26043;BME280;13818;52.156;5.382;2022-11-03T12:07:55;100104.56;;;15.41;100.00
26043;BME280;13818;52.156;5.382;2022-11-03T12:10:23;100092.38;;;15.37;100.00
26043;BME280;13818;52.156;5.382;2022-11-03T12:12:51;100078.94;;;15.26;100.00
26043;BME280;13818;52.156;5.382;2022-11-03T12:15:48;100083.09;;;15.41;100.00
26043;BME280;13818;52.156;5.382;2022-11-03T12:18:31;100066.97;;;15.41;100.00
26043;BME280;13818;52.156;5.382;2022-11-03T12:20:58;100058.44;;;15.36;100.00
26043;BME280;13818;52.156;5.382;2022-11-03T12:23:32;100066.34;;;15.38;100.00
26043;BME280;13818;52.156;5.382;2022-11-03T12:25:59;100045.84;;;15.37;100.00
26043;BME280;13818;52.156;5.382;2022-11-03T12:28:29;100050.88;;;15.41;100.00
26043;BME280;13818;52.156;5.382;2022-11-03T12:30:57;100044.75;;;15.39;100.00
26043;BME280;13818;52.156;5.382;2022-11-03T12:33:25;100031.09;;;15.42;100.00
26043;BME280;13818;52.156;5.382;2022-11-03T12:35:51;100033.16;;;15.50;100.00
26043;BME280;13818;52.156;5.382;2022-11-03T12:38:18;100036.81;;;15.60;100.00
26043;BME280;13818;52.156;5.382;2022-11-03T12:40:44;100032.66;;;15.68;100.00
26043;BME280;13818;52.156;5.382;2022-11-03T12:43:10;100025.72;;;15.65;100.00
26043;BME280;13818;52.156;5.382;2022-11-03T12:45:37;100024.88;;;15.65;100.00
26043;BME280;13818;52.156;5.382;2022-11-03T12:48:06;100022.06;;;15.66;100.00
26043;BME280;13818;52.156;5.382;2022-11-03T12:50:33;100026.06;;;15.60;100.00
26043;BME280;13818;52.156;5.382;2022-11-03T12:53:01;100013.75;;;15.58;100.00
26043;BME280;13818;52.156;5.382;2022-11-03T12:55:28;100010.59;;;15.53;100.00
26043;BME280;13818;52.156;5.382;2022-11-03T12:57:54;100007.91;;;15.53;100.00
26043;BME280;13818;52.156;5.382;2022-11-03T13:00:21;100003.13;;;15.56;100.00
26043;BME280;13818;52.156;5.382;2022-11-03T13:02:48;99996.41;;;15.62;100.00